Time;durP1;ratioP1;P1;durP2;ratioP2;P2;SDS_P1;SDS_P2;PMS_P1;PMS_P2;Temp;Humidity;BMP_temperature;BMP_pressure;BME280_temperature;BME280_humidity;BME280_pressure;Samples;Min_cycle;Max_cycle;Signal;HPM_P1;HPM_P2
2021/01/25 00:00:42;;;;;;;26.20;11.90;;;;;;;9.46;49.55;93035.69;4961180;28;20019;-77
2021/01/25 00:03:07;;;;;;;26.25;11.32;;;;;;;9.55;48.96;93041.84;4967270;28;20039;-77
2021/01/25 00:05:34;;;;;;;14.70;8.68;;;;;;;9.63;49.09;93068.00;4960832;28;20482;-77
2021/01/25 00:08:00;;;;;;;23.55;11.88;;;;;;;9.69;49.03;93066.16;4926589;28;20048;-77
2021/01/25 00:10:25;;;;;;;24.75;12.50;;;;;;;9.82;48.60;93044.81;4944708;28;20498;-77
2021/01/25 00:12:51;;;;;;;23.35;12.50;;;;;;;9.87;48.46;93060.34;4926907;28;20035;-77
2021/01/25 00:15:16;;;;;;;31.40;13.65;;;;;;;9.98;48.48;93042.88;4982340;28;20041;-77
2021/01/25 00:17:42;;;;;;;29.08;13.35;;;;;;;10.05;48.58;93032.94;4938198;28;20035;-77
2021/01/25 00:20:08;;;;;;;23.02;11.70;;;;;;;10.08;48.26;93040.19;4972369;28;20047;-77
2021/01/25 00:22:33;;;;;;;11.35;5.38;;;;;;;10.08;47.56;92998.63;4943382;28;20034;-77
2021/01/25 00:24:59;;;;;;;13.43;6.78;;;;;;;9.60;49.19;93021.06;4929144;28;20031;-77
2021/01/25 00:27:24;;;;;;;14.93;6.80;;;;;;;9.48;50.13;93059.53;4944373;28;20495;-77
2021/01/25 00:29:50;;;;;;;13.18;7.20;;;;;;;9.55;49.78;92977.75;4960516;28;20463;-77
2021/01/25 00:32:15;;;;;;;12.57;5.72;;;;;;;9.28;50.18;92992.97;4927230;28;20380;-78
2021/01/25 00:34:41;;;;;;;16.10;5.50;;;;;;;9.41;49.94;93001.97;4961779;28;20039;-77
2021/01/25 00:37:06;;;;;;;5.55;4.32;;;;;;;9.45;49.71;93008.97;4926842;28;20031;-77
2021/01/25 00:39:31;;;;;;;12.40;5.57;;;;;;;9.51;49.57;93033.81;4943974;28;20077;-78
2021/01/25 00:41:57;;;;;;;11.70;6.15;;;;;;;9.52;49.38;93045.75;4943615;28;20451;-77
2021/01/25 00:44:22;;;;;;;10.85;5.18;;;;;;;9.59;49.72;93048.03;4952152;28;20122;-77
2021/01/25 00:46:48;;;;;;;10.18;5.35;;;;;;;9.69;49.29;93065.38;4961200;28;20038;-77
2021/01/25 00:49:19;;;;;;;10.25;5.57;;;;;;;9.59;49.04;93041.03;4964718;28;20024;-81
2021/01/25 00:51:45;;;;;;;7.73;4.97;;;;;;;9.55;49.31;93014.06;4960958;28;20037;-77
2021/01/25 00:54:10;;;;;;;8.82;5.07;;;;;;;9.09;50.84;93020.53;4963160;28;20282;-77
2021/01/25 00:56:36;;;;;;;12.50;5.13;;;;;;;8.86;51.51;93016.75;4963353;28;20083;-78
2021/01/25 00:59:01;;;;;;;7.28;4.68;;;;;;;8.88;51.74;93020.63;4944455;28;20038;-77
2021/01/25 01:01:27;;;;;;;7.85;4.97;;;;;;;8.81;52.06;93027.91;4942329;28;20514;-77
2021/01/25 01:03:52;;;;;;;8.70;4.78;;;;;;;8.90;51.87;93013.34;4960691;28;20093;-77
2021/01/25 01:06:17;;;;;;;13.80;5.88;;;;;;;8.86;52.07;93007.16;4960325;28;20038;-77
2021/01/25 01:08:43;;;;;;;7.38;5.18;;;;;;;8.95;51.60;93007.38;4943494;28;20052;-77
2021/01/25 01:11:13;;;;;;;10.50;4.80;;;;;;;9.20;51.15;93006.50;4910297;28;20422;-77
2021/01/25 01:13:38;;;;;;;15.63;5.72;;;;;;;9.36;50.70;93005.38;4960622;28;20033;-77
2021/01/25 01:16:05;;;;;;;14.52;6.38;;;;;;;9.47;50.38;93017.25;4960787;28;20031;-77
2021/01/25 01:18:31;;;;;;;21.27;8.77;;;;;;;9.60;49.87;93016.66;4943483;28;20210;-77
2021/01/25 01:20:56;;;;;;;11.38;5.65;;;;;;;9.66;50.16;92995.84;4960722;28;20030;-77
2021/01/25 01:23:22;;;;;;;10.48;5.38;;;;;;;9.61;50.28;92989.66;4960696;28;20026;-77
2021/01/25 01:25:47;;;;;;;9.93;5.47;;;;;;;9.46;50.24;93018.28;4960421;28;20179;-77
2021/01/25 01:28:12;;;;;;;9.75;5.75;;;;;;;9.59;50.15;93015.06;4927810;28;20027;-77
2021/01/25 01:30:38;;;;;;;9.40;6.32;;;;;;;9.72;50.03;93023.31;4927176;28;20043;-77
2021/01/25 01:33:03;;;;;;;7.03;5.63;;;;;;;9.79;49.76;93014.19;4960554;28;20027;-78
2021/01/25 01:35:29;;;;;;;11.00;5.47;;;;;;;9.87;48.81;93015.44;4956182;28;20035;-77
2021/01/25 01:37:54;;;;;;;12.00;5.28;;;;;;;9.90;49.46;92999.31;4941964;28;20043;-77
2021/01/25 01:40:20;;;;;;;8.45;4.50;;;;;;;9.72;49.72;93000.72;4960567;28;20039;-77
2021/01/25 01:42:45;;;;;;;9.23;4.43;;;;;;;9.32;50.32;92988.81;4943201;28;20076;-77
2021/01/25 01:45:11;;;;;;;8.73;5.47;;;;;;;8.85;52.01;92969.31;4928103;28;20047;-77
2021/01/25 01:47:40;;;;;;;7.32;5.18;;;;;;;8.81;51.91;92964.94;4958782;28;20035;-77
2021/01/25 01:50:06;;;;;;;8.10;5.25;;;;;;;8.92;51.77;92984.56;4926419;28;20480;-76
2021/01/25 01:52:31;;;;;;;11.00;5.38;;;;;;;9.07;51.67;92991.50;4947249;28;20124;-77
2021/01/25 01:54:59;;;;;;;11.65;5.88;;;;;;;9.21;51.17;93002.84;4927188;28;20039;-77
2021/01/25 01:57:25;;;;;;;12.15;7.15;;;;;;;9.24;51.29;92984.16;4958801;28;20549;-77
2021/01/25 01:59:51;;;;;;;10.65;6.05;;;;;;;9.39;51.40;93001.47;4943537;28;20034;-77
2021/01/25 02:02:16;;;;;;;11.88;4.63;;;;;;;9.33;51.35;92982.56;4926753;28;20455;-77
2021/01/25 02:04:43;;;;;;;8.07;4.75;;;;;;;9.41;51.24;92991.59;4940789;28;20058;-77
2021/01/25 02:07:08;;;;;;;10.40;4.72;;;;;;;9.52;51.32;92993.84;4942554;28;20058;-78
2021/01/25 02:09:39;;;;;;;10.25;4.43;;;;;;;9.50;51.13;93006.34;4926696;28;20517;-77
2021/01/25 02:12:05;;;;;;;6.30;3.67;;;;;;;9.56;51.48;93000.06;4960866;28;20042;-77
2021/01/25 02:14:31;;;;;;;5.63;3.63;;;;;;;9.58;51.64;93013.53;4912354;28;20035;-77
2021/01/25 02:16:57;;;;;;;14.52;3.60;;;;;;;9.63;51.33;93018.72;4925440;28;20055;-77
2021/01/25 02:19:43;;;;;;;6.18;3.58;;;;;;;9.80;50.76;93014.97;4940374;28;20031;-77
2021/01/25 02:22:15;;;;;;;7.50;3.92;;;;;;;9.72;51.50;92979.97;4957405;28;20106;-77
2021/01/25 02:24:44;;;;;;;7.53;3.25;;;;;;;9.48;52.67;92987.66;4958910;28;20038;-77
2021/01/25 02:27:43;;;;;;;4.93;3.50;;;;;;;9.51;52.66;92992.31;4910604;28;20118;-77
2021/01/25 02:30:09;;;;;;;6.57;3.33;;;;;;;9.54;52.91;93003.97;4907917;28;20083;-77
2021/01/25 02:32:34;;;;;;;6.03;4.32;;;;;;;9.66;53.56;92993.25;4927190;28;20041;-77
2021/01/25 02:35:01;;;;;;;6.15;3.13;;;;;;;9.76;57.45;92987.97;4926625;28;20031;-77
2021/01/25 02:37:28;;;;;;;3.78;2.30;;;;;;;9.73;57.34;92984.13;4930688;28;20031;-78
2021/01/25 02:39:54;;;;;;;3.53;2.53;;;;;;;9.88;56.98;92991.78;4958199;28;20541;-77
2021/01/25 02:42:20;;;;;;;5.18;2.65;;;;;;;10.01;57.01;93016.38;4927027;28;20121;-77
2021/01/25 02:44:46;;;;;;;6.35;3.80;;;;;;;10.07;56.69;92989.28;4958894;28;20170;-77
2021/01/25 02:47:12;;;;;;;3.53;2.25;;;;;;;9.90;57.63;92989.69;4927959;28;20063;-77
2021/01/25 02:49:38;;;;;;;1.80;1.65;;;;;;;10.03;56.89;93009.06;4929898;28;20023;-77
2021/01/25 02:52:06;;;;;;;4.75;3.05;;;;;;;10.15;56.04;93027.69;4965857;28;20417;-77
2021/01/25 02:54:32;;;;;;;8.65;3.08;;;;;;;10.26;55.03;93022.44;4946644;28;20027;-77
2021/01/25 02:56:57;;;;;;;5.82;3.90;;;;;;;10.35;56.49;93026.75;4947870;28;20047;-77
2021/01/25 02:59:23;;;;;;;6.40;3.25;;;;;;;10.38;58.03;93018.41;4965820;28;20035;-77
2021/01/25 03:04:18;;;;;;;8.60;3.55;;;;;;;10.21;61.23;93025.84;4963667;23;20102;-77
2021/01/25 03:06:43;;;;;;;2.13;1.98;;;;;;;9.99;63.09;93018.47;4934969;29;20080;-77
2021/01/25 03:09:09;;;;;;;1.70;1.60;;;;;;;9.76;64.31;93019.94;4916943;29;20051;-77
2021/01/25 03:11:34;;;;;;;2.00;1.90;;;;;;;9.59;66.02;93002.09;4932188;29;20067;-77
2021/01/25 03:14:09;;;;;;;2.75;2.10;;;;;;;9.40;66.90;93000.41;4916468;29;20043;-77
2021/01/25 03:16:35;;;;;;;6.28;2.05;;;;;;;9.28;66.34;93004.13;4931852;29;20718;-77
2021/01/25 03:19:00;;;;;;;3.90;2.33;;;;;;;9.25;66.52;93009.06;4931999;29;20051;-77
2021/01/25 03:21:26;;;;;;;3.35;2.72;;;;;;;9.18;67.61;93003.38;4934684;29;20035;-77
2021/01/25 03:23:52;;;;;;;6.18;2.38;;;;;;;9.03;67.72;92997.22;4932796;29;20408;-77
2021/01/25 03:26:18;;;;;;;9.88;4.47;;;;;;;8.92;68.64;92994.94;4932443;29;20550;-77
2021/01/25 03:28:43;;;;;;;3.55;2.63;;;;;;;8.85;68.43;93005.59;4931728;29;20091;-77
2021/01/25 03:31:09;;;;;;;2.45;2.05;;;;;;;8.80;67.95;92989.31;4931558;29;20031;-77
2021/01/25 03:33:34;;;;;;;4.45;2.30;;;;;;;8.82;67.71;93005.34;4932653;29;20035;-77
2021/01/25 03:36:00;;;;;;;2.83;2.50;;;;;;;8.73;66.98;92990.34;4916314;29;20500;-77
2021/01/25 03:38:25;;;;;;;1.75;1.65;;;;;;;8.72;65.52;92998.38;4900563;29;20042;-77
2021/01/25 03:40:51;;;;;;;1.23;1.23;;;;;;;8.86;63.49;93001.19;4931257;29;20039;-77
2021/01/25 03:43:16;;;;;;;1.80;1.70;;;;;;;8.93;64.06;92994.66;4932813;29;20487;-77
2021/01/25 03:45:42;;;;;;;2.13;1.00;;;;;;;9.00;63.05;93023.69;4931994;29;20075;-78
2021/01/25 03:48:08;;;;;;;2.00;1.90;;;;;;;9.19;63.02;93007.53;4930967;29;20078;-77
2021/01/25 03:50:33;;;;;;;4.90;2.60;;;;;;;9.30;62.88;93003.84;4915845;29;20032;-77
2021/01/25 03:53:02;;;;;;;2.30;2.10;;;;;;;9.28;62.03;93001.53;4933966;29;20035;-77
2021/01/25 03:55:28;;;;;;;2.28;2.00;;;;;;;9.41;61.78;93010.53;4933475;29;20035;-78
2021/01/25 04:00:23;;;;;;;2.92;1.77;;;;;;;9.37;60.89;92996.53;4961336;23;20055;-78
2021/01/25 04:02:51;;;;;;;2.05;1.75;;;;;;;9.35;60.30;92997.84;4963562;29;20069;-77
2021/01/25 04:05:17;;;;;;;2.65;2.45;;;;;;;9.35;60.94;92995.25;4968370;28;20063;-77
2021/01/25 04:07:42;;;;;;;2.88;1.65;;;;;;;9.36;59.68;92995.00;4956087;28;20427;-78
2021/01/25 04:10:08;;;;;;;2.95;2.33;;;;;;;9.44;59.84;93002.22;4948462;29;20487;-78
2021/01/25 04:12:33;;;;;;;3.90;2.78;;;;;;;9.45;59.73;93008.97;4915523;29;20049;-78
2021/01/25 04:14:59;;;;;;;2.65;2.45;;;;;;;9.38;60.58;93012.88;4914452;29;20059;-78
2021/01/25 04:17:25;;;;;;;2.22;2.05;;;;;;;9.31;62.01;93002.81;4947405;29;20057;-78
2021/01/25 04:19:51;;;;;;;2.13;2.03;;;;;;;9.26;62.23;92995.03;4944227;29;20031;-78
2021/01/25 04:22:16;;;;;;;1.60;1.50;;;;;;;9.28;61.89;92977.41;4948359;29;20619;-78
2021/01/25 04:24:42;;;;;;;2.80;2.00;;;;;;;9.25;61.72;92965.72;4945751;29;20035;-77
2021/01/25 04:27:11;;;;;;;3.15;2.13;;;;;;;9.26;61.70;92976.88;4909510;29;20460;-78
2021/01/25 04:29:41;;;;;;;2.53;2.30;;;;;;;9.33;61.29;92964.41;4909785;29;20035;-77
2021/01/25 04:32:06;;;;;;;2.42;2.13;;;;;;;9.39;60.63;92968.50;4926412;29;20043;-78
2021/01/25 04:34:37;;;;;;;5.45;2.20;;;;;;;9.49;59.39;92971.06;4943241;29;20035;-77
2021/01/25 04:37:02;;;;;;;5.88;2.20;;;;;;;9.48;58.92;92961.72;4927740;29;20160;-77
2021/01/25 04:39:28;;;;;;;2.83;1.90;;;;;;;9.63;57.92;92966.81;4941489;29;20496;-76
2021/01/25 04:41:53;;;;;;;3.55;2.28;;;;;;;9.80;57.13;92973.44;4942424;29;20039;-77
2021/01/25 04:44:18;;;;;;;2.17;1.98;;;;;;;9.87;56.70;92990.25;4943255;29;20038;-77
2021/01/25 04:46:44;;;;;;;12.43;2.05;;;;;;;10.03;56.37;92998.69;4910252;29;20034;-77
2021/01/25 04:49:13;;;;;;;4.68;2.03;;;;;;;10.09;55.09;92992.41;4909525;29;20038;-77
2021/01/25 04:51:39;;;;;;;3.50;2.90;;;;;;;10.20;54.42;92987.91;4921436;29;20035;-81
2021/01/25 04:54:06;;;;;;;4.78;3.95;;;;;;;10.30;53.96;92998.22;4917681;29;20047;-77
2021/01/25 04:56:31;;;;;;;2.88;2.60;;;;;;;10.39;52.53;93011.38;4925901;29;20039;-77
2021/01/25 04:58:57;;;;;;;2.08;1.23;;;;;;;10.36;52.82;93001.56;4912877;29;20415;-79
2021/01/25 05:01:23;;;;;;;1.70;1.60;;;;;;;10.49;53.25;93016.50;4951103;29;20032;-80
2021/01/25 05:03:48;;;;;;;4.55;1.10;;;;;;;10.51;52.55;93035.19;4902020;29;20074;-79
2021/01/25 05:06:13;;;;;;;6.43;1.30;;;;;;;10.54;52.75;93039.84;4919193;29;20072;-79
2021/01/25 05:08:39;;;;;;;2.03;1.90;;;;;;;10.57;53.03;93039.28;4934180;29;20039;-78
2021/01/25 05:11:14;;;;;;;2.42;2.08;;;;;;;10.64;52.81;93037.16;4946826;28;20050;-78
2021/01/25 05:13:40;;;;;;;2.70;2.50;;;;;;;10.71;52.00;93024.59;4949030;29;20028;-78
2021/01/25 05:16:19;;;;;;;1.80;1.70;;;;;;;10.83;52.73;93025.00;4929410;29;20114;-78
2021/01/25 05:18:45;;;;;;;2.10;2.00;;;;;;;10.88;51.49;93023.38;4919549;29;20494;-78
2021/01/25 05:21:10;;;;;;;2.53;1.50;;;;;;;10.94;51.22;93027.50;4914981;29;20119;-78
2021/01/25 05:23:37;;;;;;;2.92;2.58;;;;;;;10.95;51.65;93044.66;4900866;29;20039;-80
2021/01/25 05:26:09;;;;;;;2.47;2.30;;;;;;;10.98;52.01;93059.69;4930389;29;20087;-78
2021/01/25 05:28:41;;;;;;;14.50;9.35;;;;;;;11.00;52.72;93067.97;4949668;29;20039;-78
2021/01/25 05:31:39;;;;;;;12.00;6.93;;;;;;;10.99;51.82;93063.84;4934112;29;20051;-79
2021/01/25 05:34:04;;;;;;;6.68;4.20;;;;;;;10.81;52.38;93076.50;4919559;29;20179;-79
2021/01/25 05:36:30;;;;;;;3.53;3.22;;;;;;;10.60;53.54;93072.53;4948475;29;20035;-79
2021/01/25 05:38:55;;;;;;;3.00;2.70;;;;;;;10.51;53.96;93068.97;4914765;29;20086;-79
2021/01/25 05:41:21;;;;;;;3.00;2.47;;;;;;;10.42;54.27;93062.84;4929497;29;20027;-78
2021/01/25 05:43:47;;;;;;;2.42;2.22;;;;;;;10.33;53.51;93064.47;4907517;29;20027;-78
2021/01/25 05:46:14;;;;;;;2.40;1.88;;;;;;;10.20;54.40;93076.97;4914181;29;20131;-79
2021/01/25 05:48:40;;;;;;;2.80;2.60;;;;;;;10.12;55.12;93085.38;4927401;29;20040;-78
2021/01/25 05:51:12;;;;;;;6.68;3.05;;;;;;;10.14;55.36;93092.88;4943396;29;20032;-78
2021/01/25 05:53:38;;;;;;;4.20;3.35;;;;;;;10.05;55.92;93095.28;4918168;29;20046;-78
2021/01/25 05:56:08;;;;;;;2.50;2.30;;;;;;;10.10;55.05;93092.66;4909374;29;20028;-78
2021/01/25 05:58:34;;;;;;;8.60;5.32;;;;;;;10.05;55.75;93105.66;4918299;29;20199;-78
2021/01/25 06:01:06;;;;;;;16.67;10.55;;;;;;;9.96;57.42;93114.31;4910314;29;20467;-78
2021/01/25 06:03:38;;;;;;;11.52;9.07;;;;;;;10.00;58.53;93112.72;4924538;29;20031;-78
2021/01/25 06:06:29;;;;;;;4.53;4.13;;;;;;;9.93;59.30;93105.22;4945861;29;20039;-78
2021/01/25 06:09:54;;;;;;;6.13;3.78;;;;;;;9.84;57.43;93104.22;4920134;29;20043;-79
2021/01/25 06:12:34;;;;;;;2.45;2.25;;;;;;;9.76;57.78;93110.78;4864417;29;20505;-78
2021/01/25 06:15:09;;;;;;;12.45;3.38;;;;;;;9.77;57.64;93101.16;4920953;29;20063;-79
2021/01/25 06:17:34;;;;;;;8.73;4.63;;;;;;;9.69;57.71;93117.28;4911477;29;20039;-78
2021/01/25 06:20:04;;;;;;;5.00;4.50;;;;;;;9.69;58.18;93122.47;4898105;29;20095;-78
2021/01/25 06:22:30;;;;;;;16.20;8.25;;;;;;;9.71;58.38;93135.97;4930952;29;20043;-78
2021/01/25 06:24:59;;;;;;;20.38;11.00;;;;;;;9.73;58.35;93149.44;4921165;28;20040;-77
2021/01/25 06:27:25;;;;;;;21.00;10.60;;;;;;;9.82;58.95;93137.47;4915344;29;20031;-77
2021/01/25 06:29:51;;;;;;;12.52;7.47;;;;;;;9.81;59.81;93143.72;4912153;29;20028;-77
2021/01/25 06:32:17;;;;;;;10.80;6.38;;;;;;;9.94;60.95;93156.13;4928447;29;20039;-78
2021/01/25 06:34:42;;;;;;;29.48;10.43;;;;;;;9.94;60.00;93148.31;4945436;29;20063;-78
2021/01/25 06:37:16;;;;;;;15.30;8.52;;;;;;;9.78;60.08;93142.44;4912478;29;20031;-79
2021/01/25 06:39:45;;;;;;;27.02;14.52;;;;;;;9.68;60.98;93152.06;4990281;23;20450;-78
2021/01/25 06:42:14;;;;;;;27.73;14.60;;;;;;;9.74;61.12;93169.16;4969657;28;20063;-78
2021/01/25 06:44:40;;;;;;;17.63;9.35;;;;;;;9.70;61.49;93165.56;4972112;28;20542;-77
2021/01/25 06:47:05;;;;;;;8.38;5.57;;;;;;;9.59;62.21;93170.78;4952813;28;20094;-77
2021/01/25 06:49:31;;;;;;;9.40;6.30;;;;;;;9.68;62.06;93172.84;4965637;28;20038;-78
2021/01/25 06:51:56;;;;;;;18.98;10.05;;;;;;;9.58;63.73;93169.22;4963542;28;20031;-78
2021/01/25 06:54:24;;;;;;;11.35;7.85;;;;;;;9.57;64.64;93166.91;4965635;28;20051;-78
2021/01/25 06:56:53;;;;;;;10.00;6.60;;;;;;;9.41;65.74;93179.16;4945921;28;20613;-78
2021/01/25 06:59:38;;;;;;;21.08;11.10;;;;;;;9.52;66.22;93157.31;4945095;28;20037;-78
2021/01/25 07:02:11;;;;;;;11.90;7.47;;;;;;;9.37;66.55;93185.91;4935898;23;20552;-78
2021/01/25 07:04:40;;;;;;;6.75;5.25;;;;;;;9.30;66.60;93188.00;4907589;29;20062;-77
2021/01/25 07:07:06;;;;;;;7.28;4.88;;;;;;;9.25;65.88;93177.63;4909003;29;20100;-77
2021/01/25 07:09:32;;;;;;;7.95;3.33;;;;;;;9.16;66.71;93155.88;4905333;29;20037;-78
2021/01/25 07:11:59;;;;;;;3.70;2.92;;;;;;;9.24;63.59;93157.91;4910191;29;20041;-78
2021/01/25 07:14:29;;;;;;;9.70;4.40;;;;;;;9.23;65.16;93172.72;4910386;29;20025;-78
2021/01/25 07:16:56;;;;;;;18.45;4.20;;;;;;;9.30;67.29;93175.81;4910336;29;20386;-78
2021/01/25 07:19:21;;;;;;;4.22;2.65;;;;;;;9.25;68.34;93195.78;4909104;29;20056;-78
2021/01/25 07:21:48;;;;;;;13.02;4.97;;;;;;;9.27;68.79;93204.06;4930569;29;20033;-78
2021/01/25 07:24:20;;;;;;;9.10;3.92;;;;;;;9.20;66.59;93190.63;4909033;29;20048;-78
2021/01/25 07:26:54;;;;;;;18.30;9.88;;;;;;;9.16;66.84;93199.97;4906924;29;20040;-78
2021/01/25 07:29:22;;;;;;;22.35;10.73;;;;;;;9.13;67.02;93198.69;4897004;29;20044;-78
2021/01/25 07:31:47;;;;;;;12.35;7.40;;;;;;;9.00;65.98;93214.75;4889744;29;20032;-78
2021/01/25 07:34:13;;;;;;;26.27;11.68;;;;;;;9.01;66.77;93231.88;4886977;29;20049;-78
2021/01/25 07:36:39;;;;;;;27.27;11.13;;;;;;;9.00;66.75;93246.66;4887902;29;20421;-78
2021/01/25 07:39:09;;;;;;;34.35;15.85;;;;;;;9.10;67.61;93266.59;4890043;29;20047;-78
2021/01/25 07:41:34;;;;;;;2.78;2.22;;;;;;;9.13;64.04;93273.09;4888717;29;20045;-78
2021/01/25 07:44:01;;;;;;;2.72;1.92;;;;;;;8.39;60.27;93282.84;4889257;29;20062;-78
2021/01/25 07:46:27;;;;;;;3.70;3.20;;;;;;;7.81;60.87;93302.81;4893775;29;20036;-79
2021/01/25 07:48:53;;;;;;;5.10;3.95;;;;;;;7.63;62.18;93326.47;4888294;29;20048;-78
2021/01/25 07:51:21;;;;;;;3.53;2.63;;;;;;;7.36;61.61;93336.13;4910979;29;20048;-77
2021/01/25 07:56:19;;;;;;;2.08;1.92;;;;;;;6.38;60.84;93315.63;4959224;23;20075;-78
2021/01/25 07:58:45;;;;;;;6.95;1.80;;;;;;;5.70;60.71;93337.47;4930243;29;20127;-77
2021/01/25 08:01:16;;;;;;;2.15;1.95;;;;;;;5.06;62.32;93373.88;4910948;29;20100;-78
2021/01/25 08:03:42;;;;;;;4.05;2.58;;;;;;;4.70;64.99;93367.31;4902790;29;20059;-78
2021/01/25 08:06:08;;;;;;;2.60;2.28;;;;;;;4.50;64.86;93423.59;4901577;29;20086;-77
2021/01/25 08:08:34;;;;;;;4.65;2.47;;;;;;;4.39;65.08;93401.22;4908950;29;20484;-77
2021/01/25 08:10:59;;;;;;;2.33;2.22;;;;;;;4.16;65.73;93428.59;4909187;29;20568;-77
2021/01/25 08:13:27;;;;;;;2.00;1.90;;;;;;;4.22;65.18;93453.41;4901071;29;20043;-78
2021/01/25 08:16:09;;;;;;;2.78;2.50;;;;;;;4.10;66.50;93475.78;4892294;29;20040;-77
2021/01/25 08:18:58;;;;;;;;;;;;;;;4.02;66.48;93476.13;4908684;29;20055;-78
2021/01/25 08:21:34;;;;;;;12.85;7.00;;;;;;;3.79;66.59;93501.84;4947247;23;19922;-77
2021/01/25 08:24:01;;;;;;;6.78;4.60;;;;;;;3.63;66.59;93512.75;4952836;29;20082;-77
2021/01/25 08:26:27;;;;;;;8.35;4.75;;;;;;;3.50;68.69;93511.94;4920861;29;20043;-78
2021/01/25 08:28:58;;;;;;;10.70;4.50;;;;;;;3.41;68.70;93517.59;4920113;29;20058;-78
2021/01/25 08:31:43;;;;;;;9.77;7.38;;;;;;;3.39;68.28;93499.84;4927220;29;20648;-78
2021/01/25 08:34:23;;;;;;;18.05;10.85;;;;;;;3.49;69.65;93515.53;4937782;23;20079;-77
2021/01/25 08:37:24;;;;;;;6.53;5.78;;;;;;;3.69;68.17;93517.00;4923022;23;20056;-78
2021/01/25 08:39:50;;;;;;;5.07;4.57;;;;;;;3.69;67.13;93545.28;4883100;29;20052;-78
2021/01/25 08:42:24;;;;;;;4.97;4.55;;;;;;;3.64;68.39;93547.75;4924005;29;20062;-76
2021/01/25 08:45:11;;;;;;;14.43;6.10;;;;;;;3.54;69.21;93543.91;4928817;29;20052;-76
2021/01/25 08:47:39;;;;;;;8.27;5.45;;;;;;;3.49;67.93;93554.06;4924355;29;20095;-78
2021/01/25 08:50:24;;;;;;;13.75;7.93;;;;;;;3.63;68.46;93561.59;4893382;29;20040;-78
2021/01/25 08:53:02;;;;;;;6.93;5.95;;;;;;;3.78;67.04;93569.69;4924234;29;20126;-77
2021/01/25 08:55:44;;;;;;;9.02;6.68;;;;;;;3.98;66.31;93565.03;4907436;29;20032;-78
2021/01/25 08:58:38;;;;;;;11.32;7.35;;;;;;;4.17;66.02;93545.91;4908846;29;20137;-78
2021/01/25 09:01:18;;;;;;;20.05;11.32;;;;;;;4.57;65.69;93563.28;4882648;29;20044;-77
2021/01/25 09:03:44;;;;;;;21.27;14.50;;;;;;;4.71;63.78;93572.31;4929573;29;20028;-81
2021/01/25 09:06:10;;;;;;;21.10;13.10;;;;;;;4.95;65.08;93574.88;4925878;29;20040;-78
2021/01/25 09:08:36;;;;;;;8.40;4.65;;;;;;;5.26;61.53;93574.44;4923318;29;20071;-77
2021/01/25 09:11:08;;;;;;;3.55;3.25;;;;;;;5.36;60.31;93576.41;4919594;29;20556;-78
2021/01/25 09:13:33;;;;;;;5.23;4.27;;;;;;;5.52;60.84;93598.09;4924710;29;20046;-78
2021/01/25 09:16:02;;;;;;;5.28;4.78;;;;;;;5.53;60.53;93610.81;4926558;29;20299;-78
2021/01/25 09:18:27;;;;;;;3.88;3.58;;;;;;;5.74;59.44;93614.53;4877312;29;20032;-77
2021/01/25 09:23:28;;;;;;;3.70;2.47;;;;;;;5.90;59.31;93608.66;4987113;23;20059;-78
2021/01/25 09:25:54;;;;;;;5.68;2.97;;;;;;;6.00;59.93;93615.75;4951947;29;20039;-76
2021/01/25 09:28:20;;;;;;;3.55;3.25;;;;;;;5.96;56.88;93606.94;4930791;29;20094;-77
2021/01/25 09:33:21;;;;;;;3.95;3.50;;;;;;;6.08;55.81;93609.44;5551711;23;20043;-76
2021/01/25 09:35:47;;;;;;;3.35;3.03;;;;;;;6.20;54.47;93618.69;4936668;29;20062;-76
2021/01/25 09:38:13;;;;;;;4.90;3.53;;;;;;;6.15;53.52;93589.44;4941151;29;20035;-77
2021/01/25 09:43:13;;;;;;;18.98;11.45;;;;;;;6.48;53.52;93625.56;4610709;23;20504;-77
2021/01/25 09:45:39;;;;;;;5.38;4.43;;;;;;;6.45;51.61;93620.88;4923990;29;20039;-77
2021/01/25 09:48:05;;;;;;;16.20;4.25;;;;;;;6.47;51.92;93634.34;4914451;29;20480;-77
2021/01/25 09:50:30;;;;;;;7.10;4.25;;;;;;;6.42;50.54;93626.53;4913156;29;20135;-77
2021/01/25 09:52:56;;;;;;;4.00;3.67;;;;;;;6.37;51.61;93629.03;4913559;29;20051;-77
2021/01/25 10:00:24;;;;;;;7.95;6.10;;;;;;;6.28;51.41;93625.25;5012132;23;20071;-78
2021/01/25 10:02:49;;;;;;;6.47;4.00;;;;;;;6.33;51.90;93612.44;4946119;29;20562;-78
2021/01/25 10:05:15;;;;;;;5.60;4.15;;;;;;;6.38;51.45;93611.75;4936656;29;20031;-77
2021/01/25 10:07:41;;;;;;;1.83;1.73;;;;;;;6.35;51.60;93625.91;4917603;29;20035;-78
2021/01/25 10:10:09;;;;;;;13.50;7.50;;;;;;;6.35;51.47;93615.59;4935219;29;20035;-77
2021/01/25 10:12:34;;;;;;;3.90;3.50;;;;;;;6.33;52.08;93633.09;4893530;29;20040;-77
2021/01/25 10:15:00;;;;;;;4.40;3.45;;;;;;;6.41;53.70;93640.47;4917062;29;20031;-77
2021/01/25 10:17:28;;;;;;;2.05;1.95;;;;;;;6.44;52.49;93634.03;4918356;29;20037;-78
2021/01/25 10:19:53;;;;;;;1.75;1.65;;;;;;;6.36;53.70;93637.81;4917694;29;20423;-78
2021/01/25 10:22:19;;;;;;;6.22;2.72;;;;;;;6.41;53.64;93648.19;4936624;29;20036;-77
2021/01/25 10:24:44;;;;;;;3.38;1.98;;;;;;;6.35;54.17;93638.81;4936380;29;20040;-77
2021/01/25 10:27:09;;;;;;;1.85;1.42;;;;;;;6.31;54.13;93635.13;4931908;29;20035;-77
2021/01/25 10:29:35;;;;;;;1.83;1.67;;;;;;;6.29;54.42;93643.09;4887146;29;20083;-77
2021/01/25 10:32:00;;;;;;;6.32;4.93;;;;;;;6.40;54.86;93641.47;4934837;29;20554;-77
2021/01/25 10:34:26;;;;;;;6.07;4.20;;;;;;;6.47;53.87;93644.66;4933668;29;20515;-77
2021/01/25 10:36:54;;;;;;;2.38;2.28;;;;;;;6.40;53.25;93646.63;4927428;29;20035;-77
2021/01/25 10:39:20;;;;;;;2.03;1.92;;;;;;;6.30;53.19;93639.50;4930474;29;20046;-77
2021/01/25 10:41:45;;;;;;;2.08;1.98;;;;;;;6.33;53.81;93639.03;4931841;29;20036;-77
2021/01/25 10:44:15;;;;;;;1.50;1.40;;;;;;;6.31;53.10;93640.28;4900747;29;20090;-77
2021/01/25 10:46:45;;;;;;;2.05;1.95;;;;;;;6.30;52.87;93633.56;4881969;29;20508;-77
2021/01/25 10:49:11;;;;;;;1.80;1.70;;;;;;;6.22;53.42;93631.38;4887627;29;20039;-77
2021/01/25 10:51:40;;;;;;;1.70;1.60;;;;;;;6.21;52.64;93622.06;4917580;29;20032;-76
2021/01/25 10:54:06;;;;;;;2.85;2.15;;;;;;;6.22;54.55;93621.03;4933441;29;20051;-77
2021/01/25 10:56:31;;;;;;;1.50;1.40;;;;;;;6.35;52.72;93625.91;4933996;29;20508;-77
2021/01/25 10:58:57;;;;;;;3.30;2.17;;;;;;;6.45;52.71;93615.72;4931132;29;20031;-76
2021/01/25 11:01:22;;;;;;;3.20;2.33;;;;;;;6.13;54.02;93632.75;4884382;29;20608;-77
2021/01/25 11:03:48;;;;;;;2.45;2.25;;;;;;;5.93;54.18;93633.97;4933981;29;20046;-77
2021/01/25 11:06:14;;;;;;;2.30;2.20;;;;;;;5.78;54.73;93638.84;4897961;29;20123;-77
2021/01/25 11:08:40;;;;;;;3.50;2.65;;;;;;;5.68;54.95;93641.22;4932753;29;20043;-77
2021/01/25 11:11:05;;;;;;;3.13;2.47;;;;;;;5.72;55.23;93639.75;4916576;29;20139;-77
2021/01/25 11:13:31;;;;;;;1.98;1.88;;;;;;;5.68;54.59;93623.16;4900228;29;20032;-77
2021/01/25 11:15:56;;;;;;;4.43;2.30;;;;;;;5.40;54.61;93624.72;4933477;29;20572;-77
2021/01/25 11:18:25;;;;;;;4.47;2.47;;;;;;;5.25;55.06;93616.69;4934458;29;20062;-79
2021/01/25 11:20:50;;;;;;;2.72;2.40;;;;;;;5.23;55.20;93607.63;4916897;29;20070;-77
2021/01/25 11:23:16;;;;;;;3.15;2.92;;;;;;;5.23;55.18;93612.78;4935519;29;20036;-78
2021/01/25 11:25:41;;;;;;;4.10;2.58;;;;;;;5.30;55.38;93609.06;4886702;29;20036;-77
2021/01/25 11:28:07;;;;;;;2.78;2.58;;;;;;;5.12;55.02;93611.78;4903801;23;20060;-78
2021/01/25 11:30:32;;;;;;;3.40;3.10;;;;;;;5.26;56.55;93617.47;4895937;29;20032;-78
2021/01/25 11:32:57;;;;;;;3.38;2.30;;;;;;;5.49;55.61;93619.19;4891744;29;20429;-78
2021/01/25 11:35:23;;;;;;;4.22;2.60;;;;;;;5.56;54.39;93627.59;4883128;29;20032;-78
2021/01/25 11:37:49;;;;;;;3.88;2.78;;;;;;;5.29;54.81;93622.97;4886074;29;20119;-78
2021/01/25 11:40:14;;;;;;;6.45;3.13;;;;;;;5.11;55.50;93615.38;4908365;29;20040;-78
2021/01/25 11:42:40;;;;;;;6.30;2.55;;;;;;;5.17;55.59;93614.47;4911602;29;20029;-77
2021/01/25 11:45:06;;;;;;;5.15;3.00;;;;;;;5.33;55.93;93623.28;4891980;29;20028;-77
2021/01/25 11:47:31;;;;;;;3.72;3.35;;;;;;;5.52;55.29;93621.31;4884172;29;20033;-77
2021/01/25 11:49:57;;;;;;;3.65;3.33;;;;;;;5.37;55.04;93620.03;4876740;29;20024;-76
2021/01/25 11:52:22;;;;;;;7.72;5.15;;;;;;;5.47;55.32;93613.50;4877802;29;20037;-77
2021/01/25 11:54:48;;;;;;;3.38;2.90;;;;;;;5.64;54.52;93619.47;4891879;29;20041;-77
2021/01/25 11:57:14;;;;;;;3.88;3.30;;;;;;;5.90;54.52;93613.03;4860641;29;20092;-77
2021/01/25 11:59:39;;;;;;;2.50;2.30;;;;;;;6.06;54.08;93611.50;4949334;23;20200;-77